sensor_id;sensor_type;location;lat;lon;timestamp;pressure;altitude;pressure_sealevel;temperature;humidity
10014;BME280;45684;48.358;10.746;2022-11-18T00:02:16;94551.94;;;8.02;100.00
10014;BME280;45684;48.358;10.746;2022-11-18T00:04:44;94545.72;;;8.02;100.00
10014;BME280;45684;48.358;10.746;2022-11-18T00:07:12;94536.09;;;8.01;100.00
10014;BME280;45684;48.358;10.746;2022-11-18T00:09:40;94534.19;;;8.01;100.00
10014;BME280;45684;48.358;10.746;2022-11-18T00:12:07;94540.69;;;8.00;100.00
10014;BME280;45684;48.358;10.746;2022-11-18T00:14:53;94532.63;;;8.00;100.00
10014;BME280;45684;48.358;10.746;2022-11-18T00:17:22;94528.38;;;7.99;100.00
10014;BME280;45684;48.358;10.746;2022-11-18T00:19:50;94523.00;;;7.99;100.00
10014;BME280;45684;48.358;10.746;2022-11-18T00:22:17;94523.78;;;8.00;100.00
10014;BME280;45684;48.358;10.746;2022-11-18T00:24:48;94524.56;;;8.00;100.00
10014;BME280;45684;48.358;10.746;2022-11-18T00:27:16;94519.16;;;8.00;100.00
10014;BME280;45684;48.358;10.746;2022-11-18T00:29:44;94518.38;;;8.00;100.00
10014;BME280;45684;48.358;10.746;2022-11-18T00:32:12;94513.78;;;8.00;100.00
10014;BME280;45684;48.358;10.746;2022-11-18T00:34:41;94513.00;;;8.00;100.00
10014;BME280;45684;48.358;10.746;2022-11-18T00:37:09;94514.91;;;7.99;100.00
10014;BME280;45684;48.358;10.746;2022-11-18T00:39:36;94506.84;;;7.99;100.00
10014;BME280;45684;48.358;10.746;2022-11-18T00:42:04;94504.94;;;8.00;100.00
10014;BME280;45684;48.358;10.746;2022-11-18T00:44:49;94502.59;;;7.98;100.00
10014;BME280;45684;48.358;10.746;2022-11-18T00:47:17;94501.47;;;7.99;100.00
10014;BME280;45684;48.358;10.746;2022-11-18T00:49:46;94509.06;;;7.97;100.00
10014;BME280;45684;48.358;10.746;2022-11-18T00:52:14;94509.78;;;7.94;100.00
10014;BME280;45684;48.358;10.746;2022-11-18T00:54:42;94507.41;;;7.92;100.00
10014;BME280;45684;48.358;10.746;2022-11-18T00:57:10;94505.06;;;7.91;100.00
10014;BME280;45684;48.358;10.746;2022-11-18T00:59:37;94495.44;;;7.90;100.00
10014;BME280;45684;48.358;10.746;2022-11-18T01:02:05;94499.25;;;7.89;100.00
10014;BME280;45684;48.358;10.746;2022-11-18T01:04:33;94502.25;;;7.87;100.00
10014;BME280;45684;48.358;10.746;2022-11-18T01:07:02;94504.88;;;7.84;100.00
10014;BME280;45684;48.358;10.746;2022-11-18T01:09:30;94507.88;;;7.82;100.00
10014;BME280;45684;48.358;10.746;2022-11-18T01:11:58;94509.78;;;7.82;100.00
10014;BME280;45684;48.358;10.746;2022-11-18T01:14:43;94504.75;;;7.80;100.00
10014;BME280;45684;48.358;10.746;2022-11-18T01:17:11;94508.56;;;7.79;100.00
10014;BME280;45684;48.358;10.746;2022-11-18T01:19:39;94505.09;;;7.79;100.00
10014;BME280;45684;48.358;10.746;2022-11-18T01:22:08;94502.41;;;7.79;100.00
10014;BME280;45684;48.358;10.746;2022-11-18T01:24:36;94501.59;;;7.78;100.00
10014;BME280;45684;48.358;10.746;2022-11-18T01:27:04;94496.56;;;7.77;100.00
10014;BME280;45684;48.358;10.746;2022-11-18T01:29:31;94496.56;;;7.77;100.00
10014;BME280;45684;48.358;10.746;2022-11-18T01:31:59;94490.75;;;7.75;100.00
10014;BME280;45684;48.358;10.746;2022-11-18T01:34:47;94501.06;;;7.73;100.00
10014;BME280;45684;48.358;10.746;2022-11-18T01:37:16;94494.13;;;7.72;100.00
10014;BME280;45684;48.358;10.746;2022-11-18T01:39:44;94502.84;;;7.68;100.00
10014;BME280;45684;48.358;10.746;2022-11-18T01:42:14;94492.44;;;7.67;100.00
10014;BME280;45684;48.358;10.746;2022-11-18T01:45:04;94494.34;;;7.66;100.00
10014;BME280;45684;48.358;10.746;2022-11-18T01:47:37;94492.78;;;7.65;100.00
10014;BME280;45684;48.358;10.746;2022-11-18T01:50:08;94496.56;;;7.64;100.00
10014;BME280;45684;48.358;10.746;2022-11-18T01:52:38;94493.88;;;7.64;100.00
10014;BME280;45684;48.358;10.746;2022-11-18T01:55:13;94485.81;;;7.64;100.00
10014;BME280;45684;48.358;10.746;2022-11-18T01:57:44;94488.84;;;7.63;100.00
10014;BME280;45684;48.358;10.746;2022-11-18T02:00:13;94497.72;;;7.63;100.00
10014;BME280;45684;48.358;10.746;2022-11-18T02:02:41;94491.19;;;7.64;100.00
10014;BME280;45684;48.358;10.746;2022-11-18T02:05:10;94491.19;;;7.64;100.00
10014;BME280;45684;48.358;10.746;2022-11-18T02:07:41;94491.66;;;7.66;100.00
10014;BME280;45684;48.358;10.746;2022-11-18T02:10:18;94489.75;;;7.67;100.00
10014;BME280;45684;48.358;10.746;2022-11-18T02:12:48;94492.44;;;7.67;100.00
10014;BME280;45684;48.358;10.746;2022-11-18T02:15:17;94492.09;;;7.68;100.00
10014;BME280;45684;48.358;10.746;2022-11-18T02:17:54;94489.88;;;7.71;100.00
10014;BME280;45684;48.358;10.746;2022-11-18T02:20:29;94486.03;;;7.72;100.00
10014;BME280;45684;48.358;10.746;2022-11-18T02:23:20;94483.34;;;7.72;100.00
10014;BME280;45684;48.358;10.746;2022-11-18T02:26:08;94485.69;;;7.73;100.00
10014;BME280;45684;48.358;10.746;2022-11-18T02:28:56;94485.69;;;7.73;100.00
10014;BME280;45684;48.358;10.746;2022-11-18T02:31:30;94479.22;;;7.74;100.00
10014;BME280;45684;48.358;10.746;2022-11-18T02:34:05;94484.25;;;7.76;100.00
10014;BME280;45684;48.358;10.746;2022-11-18T02:36:39;94482.44;;;7.80;100.00
10014;BME280;45684;48.358;10.746;2022-11-18T02:39:12;94474.50;;;7.83;100.00
10014;BME280;45684;48.358;10.746;2022-11-18T02:41:44;94475.59;;;7.82;100.00
10014;BME280;45684;48.358;10.746;2022-11-18T02:44:16;94475.03;;;7.77;100.00
10014;BME280;45684;48.358;10.746;2022-11-18T02:46:48;94477.31;;;7.75;100.00
10014;BME280;45684;48.358;10.746;2022-11-18T02:49:21;94478.09;;;7.75;100.00
10014;BME280;45684;48.358;10.746;2022-11-18T02:51:50;94481.22;;;7.77;100.00
10014;BME280;45684;48.358;10.746;2022-11-18T02:54:20;94475.59;;;7.82;100.00
10014;BME280;45684;48.358;10.746;2022-11-18T02:56:50;94485.47;;;7.78;100.00
10014;BME280;45684;48.358;10.746;2022-11-18T02:59:20;94479.66;;;7.76;100.00
10014;BME280;45684;48.358;10.746;2022-11-18T03:01:48;94482.44;;;7.80;100.00
10014;BME280;45684;48.358;10.746;2022-11-18T03:04:16;94483.91;;;7.77;100.00
10014;BME280;45684;48.358;10.746;2022-11-18T03:06:49;94482.69;;;7.75;100.00
10014;BME280;45684;48.358;10.746;2022-11-18T03:09:24;94472.25;;;7.73;100.00
10014;BME280;45684;48.358;10.746;2022-11-18T03:12:01;94462.97;;;7.71;100.00
10014;BME280;45684;48.358;10.746;2022-11-18T03:14:42;94483.78;;;7.74;100.00
10014;BME280;45684;48.358;10.746;2022-11-18T03:17:16;94490.41;;;7.76;100.00
10014;BME280;45684;48.358;10.746;2022-11-18T03:19:56;94491.84;;;7.74;100.00
10014;BME280;45684;48.358;10.746;2022-11-18T03:22:31;94493.75;;;7.73;100.00
10014;BME280;45684;48.358;10.746;2022-11-18T03:25:04;94495.13;;;7.79;100.00
10014;BME280;45684;48.358;10.746;2022-11-18T03:27:35;94488.84;;;7.75;100.00
10014;BME280;45684;48.358;10.746;2022-11-18T03:30:09;94488.06;;;7.75;100.00
10014;BME280;45684;48.358;10.746;2022-11-18T03:32:43;94496.47;;;7.73;100.00
10014;BME280;45684;48.358;10.746;2022-11-18T03:35:17;94489.63;;;7.76;100.00
10014;BME280;45684;48.358;10.746;2022-11-18T03:37:48;94482.22;;;7.73;100.00
10014;BME280;45684;48.358;10.746;2022-11-18T03:40:20;94482.69;;;7.75;100.00
10014;BME280;45684;48.358;10.746;2022-11-18T03:42:51;94480.66;;;7.72;100.00
10014;BME280;45684;48.358;10.746;2022-11-18T03:45:25;94478.63;;;7.68;100.00
10014;BME280;45684;48.358;10.746;2022-11-18T03:47:55;94480.22;;;7.70;100.00
10014;BME280;45684;48.358;10.746;2022-11-18T03:50:26;94478.09;;;7.75;100.00
10014;BME280;45684;48.358;10.746;2022-11-18T03:52:57;94486.28;;;7.79;100.00
10014;BME280;45684;48.358;10.746;2022-11-18T03:55:29;94476.53;;;7.74;100.00
10014;BME280;45684;48.358;10.746;2022-11-18T03:58:03;94479.66;;;7.76;100.00
10014;BME280;45684;48.358;10.746;2022-11-18T04:00:37;94482.34;;;7.76;100.00
10014;BME280;45684;48.358;10.746;2022-11-18T04:03:08;94485.38;;;7.75;100.00
10014;BME280;45684;48.358;10.746;2022-11-18T04:05:39;94487.28;;;7.74;100.00
10014;BME280;45684;48.358;10.746;2022-11-18T04:08:10;94484.69;;;7.78;100.00
10014;BME280;45684;48.358;10.746;2022-11-18T04:10:44;94491.72;;;7.82;100.00
10014;BME280;45684;48.358;10.746;2022-11-18T04:13:16;94489.03;;;7.82;100.00
10014;BME280;45684;48.358;10.746;2022-11-18T04:15:47;94491.41;;;7.84;100.00
10014;BME280;45684;48.358;10.746;2022-11-18T04:18:15;94484.00;;;7.81;100.00
10014;BME280;45684;48.358;10.746;2022-11-18T04:20:43;94488.81;;;7.87;100.00
10014;BME280;45684;48.358;10.746;2022-11-18T04:23:11;94487.34;;;7.90;100.00
10014;BME280;45684;48.358;10.746;2022-11-18T04:25:38;94486.69;;;7.93;100.00
10014;BME280;45684;48.358;10.746;2022-11-18T04:28:07;94488.25;;;7.94;100.00
10014;BME280;45684;48.358;10.746;2022-11-18T04:30:35;94485.09;;;7.92;100.00
10014;BME280;45684;48.358;10.746;2022-11-18T04:33:04;94479.38;;;7.93;100.00
10014;BME280;45684;48.358;10.746;2022-11-18T04:35:32;94487.13;;;7.95;100.00
10014;BME280;45684;48.358;10.746;2022-11-18T04:38:00;94488.66;;;7.96;100.00
10014;BME280;45684;48.358;10.746;2022-11-18T04:40:30;94483.63;;;7.95;100.00
10014;BME280;45684;48.358;10.746;2022-11-18T04:42:58;94500.91;;;7.93;100.00
10014;BME280;45684;48.358;10.746;2022-11-18T04:45:26;94489.13;;;7.98;100.00
10014;BME280;45684;48.358;10.746;2022-11-18T04:47:54;94487.53;;;7.97;100.00
10014;BME280;45684;48.358;10.746;2022-11-18T04:50:30;94486.44;;;7.98;100.00
10014;BME280;45684;48.358;10.746;2022-11-18T04:52:58;94489.22;;;8.02;100.00
10014;BME280;45684;48.358;10.746;2022-11-18T04:55:25;94487.75;;;8.04;100.00
10014;BME280;45684;48.358;10.746;2022-11-18T04:57:53;94486.19;;;8.03;100.00
10014;BME280;45684;48.358;10.746;2022-11-18T05:00:21;94486.97;;;8.04;100.00
10014;BME280;45684;48.358;10.746;2022-11-18T05:02:49;94480.81;;;8.03;100.00
10014;BME280;45684;48.358;10.746;2022-11-18T05:05:17;94493.94;;;8.05;100.00
10014;BME280;45684;48.358;10.746;2022-11-18T05:07:46;94492.25;;;8.00;100.00
10014;BME280;45684;48.358;10.746;2022-11-18T05:10:14;94503.81;;;8.01;100.00
10014;BME280;45684;48.358;10.746;2022-11-18T05:12:43;94507.28;;;8.01;100.00
10014;BME280;45684;48.358;10.746;2022-11-18T05:15:16;94515.47;;;8.05;100.00
10014;BME280;45684;48.358;10.746;2022-11-18T05:17:44;94521.19;;;8.03;100.00
10014;BME280;45684;48.358;10.746;2022-11-18T05:20:12;94519.06;;;7.97;100.00
10014;BME280;45684;48.358;10.746;2022-11-18T05:22:40;94527.47;;;7.95;100.00
10014;BME280;45684;48.358;10.746;2022-11-18T05:25:10;94529.38;;;7.95;100.00
10014;BME280;45684;48.358;10.746;2022-11-18T05:27:37;94531.31;;;7.94;100.00
10014;BME280;45684;48.358;10.746;2022-11-18T05:30:06;94542.19;;;7.98;100.00
10014;BME280;45684;48.358;10.746;2022-11-18T05:32:34;94538.91;;;7.92;100.00
10014;BME280;45684;48.358;10.746;2022-11-18T05:35:02;94551.28;;;7.93;100.00
10014;BME280;45684;48.358;10.746;2022-11-18T05:37:30;94543.50;;;7.91;100.00
10014;BME280;45684;48.358;10.746;2022-11-18T05:39:59;94548.91;;;7.91;100.00
10014;BME280;45684;48.358;10.746;2022-11-18T05:42:28;94551.81;;;7.86;100.00
10014;BME280;45684;48.358;10.746;2022-11-18T05:45:13;94565.63;;;7.85;100.00
10014;BME280;45684;48.358;10.746;2022-11-18T05:47:41;94577.50;;;7.84;100.00
10014;BME280;45684;48.358;10.746;2022-11-18T05:50:23;94579.75;;;7.82;100.00
10014;BME280;45684;48.358;10.746;2022-11-18T05:52:51;94583.22;;;7.82;100.00
10014;BME280;45684;48.358;10.746;2022-11-18T05:55:19;94583.91;;;7.79;100.00
10014;BME280;45684;48.358;10.746;2022-11-18T05:57:50;94584.91;;;7.75;100.00
10014;BME280;45684;48.358;10.746;2022-11-18T06:00:18;94592.09;;;7.71;100.00
10014;BME280;45684;48.358;10.746;2022-11-18T06:02:48;94597.78;;;7.69;100.00
10014;BME280;45684;48.358;10.746;2022-11-18T06:05:18;94608.09;;;7.67;100.00
10014;BME280;45684;48.358;10.746;2022-11-18T06:07:48;94608.69;;;7.60;100.00
10014;BME280;45684;48.358;10.746;2022-11-18T06:10:18;94605.66;;;7.62;100.00
10014;BME280;45684;48.358;10.746;2022-11-18T06:12:51;94621.53;;;7.55;100.00
10014;BME280;45684;48.358;10.746;2022-11-18T06:15:24;94625.47;;;7.57;100.00
10014;BME280;45684;48.358;10.746;2022-11-18T06:17:56;94637.81;;;7.58;100.00
10014;BME280;45684;48.358;10.746;2022-11-18T06:20:26;94643.41;;;7.53;100.00
10014;BME280;45684;48.358;10.746;2022-11-18T06:22:56;94649.91;;;7.52;100.00
10014;BME280;45684;48.358;10.746;2022-11-18T06:25:24;94656.84;;;7.53;100.00
10014;BME280;45684;48.358;10.746;2022-11-18T06:27:55;94662.88;;;7.50;100.00
10014;BME280;45684;48.358;10.746;2022-11-18T06:30:25;94665.56;;;7.50;100.00
10014;BME280;45684;48.358;10.746;2022-11-18T06:32:53;94662.00;;;7.46;100.00
10014;BME280;45684;48.358;10.746;2022-11-18T06:35:21;94678.44;;;7.45;100.00
10014;BME280;45684;48.358;10.746;2022-11-18T06:37:49;94678.44;;;7.45;100.00
10014;BME280;45684;48.358;10.746;2022-11-18T06:40:17;94681.81;;;7.41;100.00
10014;BME280;45684;48.358;10.746;2022-11-18T06:42:45;94683.25;;;7.39;100.00
10014;BME280;45684;48.358;10.746;2022-11-18T06:45:31;94690.69;;;7.42;100.00
10014;BME280;45684;48.358;10.746;2022-11-18T06:48:00;94693.69;;;7.40;100.00
10014;BME280;45684;48.358;10.746;2022-11-18T06:50:27;94694.81;;;7.39;100.00
10014;BME280;45684;48.358;10.746;2022-11-18T06:52:55;94694.34;;;7.37;100.00
10014;BME280;45684;48.358;10.746;2022-11-18T06:55:23;94707.03;;;7.37;100.00
10014;BME280;45684;48.358;10.746;2022-11-18T06:57:51;94710.69;;;7.32;100.00
10014;BME280;45684;48.358;10.746;2022-11-18T07:00:19;94716.38;;;7.31;100.00
10014;BME280;45684;48.358;10.746;2022-11-18T07:02:48;94716.06;;;7.32;100.00
10014;BME280;45684;48.358;10.746;2022-11-18T07:05:16;94717.06;;;7.28;100.00
10014;BME280;45684;48.358;10.746;2022-11-18T07:07:44;94719.75;;;7.28;100.00
10014;BME280;45684;48.358;10.746;2022-11-18T07:10:12;94727.47;;;7.29;100.00
10014;BME280;45684;48.358;10.746;2022-11-18T07:12:40;94727.34;;;7.26;100.00
10014;BME280;45684;48.358;10.746;2022-11-18T07:15:08;94739.22;;;7.25;100.00
10014;BME280;45684;48.358;10.746;2022-11-18T07:17:36;94736.53;;;7.25;100.00
10014;BME280;45684;48.358;10.746;2022-11-18T07:20:06;94746.81;;;7.23;100.00
10014;BME280;45684;48.358;10.746;2022-11-18T07:22:34;94749.06;;;7.21;100.00
10014;BME280;45684;48.358;10.746;2022-11-18T07:25:02;94761.59;;;7.16;100.00
10014;BME280;45684;48.358;10.746;2022-11-18T07:27:30;94760.03;;;7.15;100.00
10014;BME280;45684;48.358;10.746;2022-11-18T07:29:58;94761.59;;;7.16;100.00
10014;BME280;45684;48.358;10.746;2022-11-18T07:32:26;94765.41;;;7.15;100.00
10014;BME280;45684;48.358;10.746;2022-11-18T07:34:54;94763.34;;;7.12;100.00
10014;BME280;45684;48.358;10.746;2022-11-18T07:37:23;94769.50;;;7.13;100.00
10014;BME280;45684;48.358;10.746;2022-11-18T07:39:51;94759.09;;;7.11;100.00
10014;BME280;45684;48.358;10.746;2022-11-18T07:42:19;94760.66;;;7.12;100.00
10014;BME280;45684;48.358;10.746;2022-11-18T07:44:47;94764.59;;;7.15;100.00
10014;BME280;45684;48.358;10.746;2022-11-18T07:47:14;94758.59;;;7.18;100.00
10014;BME280;45684;48.358;10.746;2022-11-18T07:49:42;94767.44;;;7.19;100.00
10014;BME280;45684;48.358;10.746;2022-11-18T07:52:10;94762.50;;;7.21;100.00
10014;BME280;45684;48.358;10.746;2022-11-18T07:54:39;94772.59;;;7.24;100.00
10014;BME280;45684;48.358;10.746;2022-11-18T07:57:07;94768.66;;;7.21;100.00
10014;BME280;45684;48.358;10.746;2022-11-18T07:59:35;94773.59;;;7.19;100.00
10014;BME280;45684;48.358;10.746;2022-11-18T08:02:03;94770.78;;;7.15;100.00
10014;BME280;45684;48.358;10.746;2022-11-18T08:04:32;94772.69;;;7.15;100.00
10014;BME280;45684;48.358;10.746;2022-11-18T08:07:00;94785.63;;;7.13;100.00
10014;BME280;45684;48.358;10.746;2022-11-18T08:09:27;94779.47;;;7.12;100.00
10014;BME280;45684;48.358;10.746;2022-11-18T08:11:57;94786.19;;;7.06;100.00
10014;BME280;45684;48.358;10.746;2022-11-18T08:14:25;94786.44;;;7.13;100.00
10014;BME280;45684;48.358;10.746;2022-11-18T08:16:54;94795.66;;;7.04;100.00
10014;BME280;45684;48.358;10.746;2022-11-18T08:19:22;94796.47;;;7.04;100.00
10014;BME280;45684;48.358;10.746;2022-11-18T08:21:50;94797.56;;;7.03;100.00
10014;BME280;45684;48.358;10.746;2022-11-18T08:24:18;94800.25;;;7.03;100.00
10014;BME280;45684;48.358;10.746;2022-11-18T08:26:45;94803.56;;;7.09;100.00
10014;BME280;45684;48.358;10.746;2022-11-18T08:29:14;94796.59;;;7.08;100.00
10014;BME280;45684;48.358;10.746;2022-11-18T08:31:50;94800.88;;;7.09;100.00
10014;BME280;45684;48.358;10.746;2022-11-18T08:34:18;94803.88;;;7.07;100.00
10014;BME280;45684;48.358;10.746;2022-11-18T08:36:45;94805.63;;;7.03;100.00
10014;BME280;45684;48.358;10.746;2022-11-18T08:39:13;94807.97;;;7.13;100.00
10014;BME280;45684;48.358;10.746;2022-11-18T08:41:43;94809.38;;;7.11;100.00
10014;BME280;45684;48.358;10.746;2022-11-18T08:44:15;94809.53;;;7.14;100.00
10014;BME280;45684;48.358;10.746;2022-11-18T08:46:43;94817.59;;;7.14;100.00
10014;BME280;45684;48.358;10.746;2022-11-18T08:49:12;94812.84;;;7.11;100.00
10014;BME280;45684;48.358;10.746;2022-11-18T08:51:39;94814.41;;;7.12;100.00
10014;BME280;45684;48.358;10.746;2022-11-18T08:54:07;94818.72;;;7.13;100.00
10014;BME280;45684;48.358;10.746;2022-11-18T08:56:35;94814.22;;;7.18;100.00
10014;BME280;45684;48.358;10.746;2022-11-18T08:59:03;94823.53;;;7.20;100.00
10014;BME280;45684;48.358;10.746;2022-11-18T09:01:32;94824.00;;;7.22;100.00
10014;BME280;45684;48.358;10.746;2022-11-18T09:04:00;94825.25;;;7.25;100.00
10014;BME280;45684;48.358;10.746;2022-11-18T09:06:28;94826.03;;;7.25;100.00
10014;BME280;45684;48.358;10.746;2022-11-18T09:08:56;94821.25;;;7.31;100.00
10014;BME280;45684;48.358;10.746;2022-11-18T09:11:31;94826.75;;;7.34;100.00
10014;BME280;45684;48.358;10.746;2022-11-18T09:14:00;94821.38;;;7.34;100.00
10014;BME280;45684;48.358;10.746;2022-11-18T09:16:49;94819.03;;;7.33;100.00
10014;BME280;45684;48.358;10.746;2022-11-18T09:19:17;94825.63;;;7.35;100.00
10014;BME280;45684;48.358;10.746;2022-11-18T09:22:05;94828.66;;;7.34;100.00
10014;BME280;45684;48.358;10.746;2022-11-18T09:24:33;94819.81;;;7.33;100.00
10014;BME280;45684;48.358;10.746;2022-11-18T09:27:03;94818.03;;;7.37;100.00
10014;BME280;45684;48.358;10.746;2022-11-18T09:29:31;94821.31;;;7.43;100.00
10014;BME280;45684;48.358;10.746;2022-11-18T09:32:01;94821.75;;;7.45;100.00
10014;BME280;45684;48.358;10.746;2022-11-18T09:34:29;94822.81;;;7.53;100.00
10014;BME280;45684;48.358;10.746;2022-11-18T09:36:56;94819.78;;;7.54;100.00
10014;BME280;45684;48.358;10.746;2022-11-18T09:39:24;94825.75;;;7.60;100.00
10014;BME280;45684;48.358;10.746;2022-11-18T09:41:59;94832.66;;;7.70;100.00
10014;BME280;45684;48.358;10.746;2022-11-18T09:44:43;94835.78;;;7.72;100.00
10014;BME280;45684;48.358;10.746;2022-11-18T09:47:21;94838.41;;;7.80;100.00
10014;BME280;45684;48.358;10.746;2022-11-18T09:49:53;94828.66;;;7.88;100.00
10014;BME280;45684;48.358;10.746;2022-11-18T09:52:23;94837.31;;;7.93;100.00
10014;BME280;45684;48.358;10.746;2022-11-18T09:55:03;94841.38;;;8.00;100.00
10014;BME280;45684;48.358;10.746;2022-11-18T09:57:37;94837.69;;;8.04;100.00
10014;BME280;45684;48.358;10.746;2022-11-18T10:00:13;94833.66;;;8.10;100.00
10014;BME280;45684;48.358;10.746;2022-11-18T10:02:47;94832.56;;;8.11;100.00
10014;BME280;45684;48.358;10.746;2022-11-18T10:05:20;94827.75;;;8.17;100.00
10014;BME280;45684;48.358;10.746;2022-11-18T10:07:58;94837.28;;;8.27;100.00
10014;BME280;45684;48.358;10.746;2022-11-18T10:10:39;94834.81;;;8.34;100.00
10014;BME280;45684;48.358;10.746;2022-11-18T10:13:16;94846.78;;;8.45;100.00
10014;BME280;45684;48.358;10.746;2022-11-18T10:15:57;94840.47;;;8.53;100.00
10014;BME280;45684;48.358;10.746;2022-11-18T10:18:34;94842.97;;;8.58;100.00
10014;BME280;45684;48.358;10.746;2022-11-18T10:21:33;94851.72;;;8.55;100.00
10014;BME280;45684;48.358;10.746;2022-11-18T10:24:09;94843.97;;;8.41;100.00
10014;BME280;45684;48.358;10.746;2022-11-18T10:26:40;94847.97;;;8.35;100.00
10014;BME280;45684;48.358;10.746;2022-11-18T10:29:08;94851.13;;;8.37;100.00
10014;BME280;45684;48.358;10.746;2022-11-18T10:31:37;94862.53;;;8.34;100.00
10014;BME280;45684;48.358;10.746;2022-11-18T10:34:09;94854.75;;;8.21;100.00
10014;BME280;45684;48.358;10.746;2022-11-18T10:36:40;94866.00;;;8.23;100.00
10014;BME280;45684;48.358;10.746;2022-11-18T10:39:10;94864.09;;;8.23;100.00
10014;BME280;45684;48.358;10.746;2022-11-18T10:41:43;94862.41;;;8.18;100.00
10014;BME280;45684;48.358;10.746;2022-11-18T10:44:27;94875.28;;;8.13;100.00
10014;BME280;45684;48.358;10.746;2022-11-18T10:47:14;94873.38;;;8.13;100.00
10014;BME280;45684;48.358;10.746;2022-11-18T10:49:44;94879.31;;;8.07;100.00
10014;BME280;45684;48.358;10.746;2022-11-18T10:52:12;94871.13;;;8.03;100.00
10014;BME280;45684;48.358;10.746;2022-11-18T10:54:41;94879.75;;;8.09;100.00
10014;BME280;45684;48.358;10.746;2022-11-18T10:57:14;94888.63;;;8.09;100.00
10014;BME280;45684;48.358;10.746;2022-11-18T10:59:46;94880.53;;;8.09;100.00
10014;BME280;45684;48.358;10.746;2022-11-18T11:02:18;94885.50;;;8.07;100.00
10014;BME280;45684;48.358;10.746;2022-11-18T11:04:49;94884.78;;;7.98;100.00
10014;BME280;45684;48.358;10.746;2022-11-18T11:07:29;94889.63;;;8.05;100.00
10014;BME280;45684;48.358;10.746;2022-11-18T11:10:00;94889.63;;;8.05;100.00
10014;BME280;45684;48.358;10.746;2022-11-18T11:12:30;94888.78;;;7.92;100.00
10014;BME280;45684;48.358;10.746;2022-11-18T11:15:03;94888.38;;;8.02;100.00
10014;BME280;45684;48.358;10.746;2022-11-18T11:17:34;94894.16;;;7.92;100.00
10014;BME280;45684;48.358;10.746;2022-11-18T11:20:18;94889.97;;;7.82;100.00
10014;BME280;45684;48.358;10.746;2022-11-18T11:22:47;94891.94;;;7.94;100.00
10014;BME280;45684;48.358;10.746;2022-11-18T11:25:17;94893.06;;;7.93;100.00
10014;BME280;45684;48.358;10.746;2022-11-18T11:27:49;94900.03;;;8.06;100.00
10014;BME280;45684;48.358;10.746;2022-11-18T11:30:44;94888.38;;;8.02;100.00
10014;BME280;45684;48.358;10.746;2022-11-18T11:33:29;94893.44;;;8.04;100.00
10014;BME280;45684;48.358;10.746;2022-11-18T11:36:19;94893.22;;;8.09;100.00
10014;BME280;45684;48.358;10.746;2022-11-18T11:38:58;94892.56;;;8.12;100.00
10014;BME280;45684;48.358;10.746;2022-11-18T11:41:38;94897.47;;;8.10;100.00
10014;BME280;45684;48.358;10.746;2022-11-18T11:44:34;94906.34;;;8.10;100.00
10014;BME280;45684;48.358;10.746;2022-11-18T11:47:14;94904.00;;;8.09;100.00
10014;BME280;45684;48.358;10.746;2022-11-18T11:50:11;94908.03;;;8.15;100.00
10014;BME280;45684;48.358;10.746;2022-11-18T11:52:49;94909.75;;;8.19;100.00
10014;BME280;45684;48.358;10.746;2022-11-18T11:55:24;94905.13;;;8.20;100.00
10014;BME280;45684;48.358;10.746;2022-11-18T11:58:03;94914.69;;;8.17;100.00
10014;BME280;45684;48.358;10.746;2022-11-18T12:00:38;94913.44;;;8.15;100.00
10014;BME280;45684;48.358;10.746;2022-11-18T12:03:19;94913.91;;;8.17;100.00
10014;BME280;45684;48.358;10.746;2022-11-18T12:05:52;94922.06;;;8.08;100.00
10014;BME280;45684;48.358;10.746;2022-11-18T12:08:23;94932.28;;;8.15;100.00
10014;BME280;45684;48.358;10.746;2022-11-18T12:10:55;94927.81;;;8.19;100.00
10014;BME280;45684;48.358;10.746;2022-11-18T12:13:35;94928.59;;;8.19;100.00
10014;BME280;45684;48.358;10.746;2022-11-18T12:16:20;94934.19;;;8.14;100.00
10014;BME280;45684;48.358;10.746;2022-11-18T12:18:56;94927.34;;;8.17;100.00
10014;BME280;45684;48.358;10.746;2022-11-18T12:21:54;94935.66;;;8.24;100.00
10014;BME280;45684;48.358;10.746;2022-11-18T12:24:27;94933.19;;;8.19;100.00
10014;BME280;45684;48.358;10.746;2022-11-18T12:26:59;94924.97;;;8.15;100.00
10014;BME280;45684;48.358;10.746;2022-11-18T12:29:35;94935.09;;;8.18;100.00
10014;BME280;45684;48.358;10.746;2022-11-18T12:32:23;94926.31;;;8.09;100.00
10014;BME280;45684;48.358;10.746;2022-11-18T12:34:56;94934.88;;;8.11;100.00
10014;BME280;45684;48.358;10.746;2022-11-18T12:37:55;94937.56;;;8.11;100.00
10014;BME280;45684;48.358;10.746;2022-11-18T12:40:40;94923.97;;;8.08;100.00
10014;BME280;45684;48.358;10.746;2022-11-18T12:46:54;94936.44;;;8.12;100.00
10014;BME280;45684;48.358;10.746;2022-11-18T12:52:51;94938.41;;;8.03;100.00
10014;BME280;45684;48.358;10.746;2022-11-18T12:55:23;94943.53;;;7.96;100.00
10014;BME280;45684;48.358;10.746;2022-11-18T12:57:52;94939.72;;;7.97;100.00
10014;BME280;45684;48.358;10.746;2022-11-18T13:00:30;94937.75;;;7.85;100.00
10014;BME280;45684;48.358;10.746;2022-11-18T13:03:22;94948.19;;;7.87;100.00
10014;BME280;45684;48.358;10.746;2022-11-18T13:06:01;94942.34;;;7.85;100.00
10014;BME280;45684;48.358;10.746;2022-11-18T13:08:30;94940.31;;;7.82;100.00
10014;BME280;45684;48.358;10.746;2022-11-18T13:11:13;94939.88;;;7.80;100.00
10014;BME280;45684;48.358;10.746;2022-11-18T13:14:02;94946.16;;;7.84;100.00
10014;BME280;45684;48.358;10.746;2022-11-18T13:16:48;94946.41;;;7.91;100.00
10014;BME280;45684;48.358;10.746;2022-11-18T13:19:33;94950.88;;;7.87;100.00
10014;BME280;45684;48.358;10.746;2022-11-18T13:22:02;94949.75;;;7.88;100.00
10014;BME280;45684;48.358;10.746;2022-11-18T13:24:49;94948.47;;;7.94;100.00